createdAt,value
2018-04-24T00:01:28.207Z,26.60
2018-04-24T00:03:54.032Z,19.53
2018-04-24T00:06:19.925Z,21.80
2018-04-24T00:08:45.731Z,27.27
2018-04-24T00:11:11.600Z,23.67
2018-04-24T00:13:37.413Z,23.47
2018-04-24T00:16:03.256Z,26.03
2018-04-24T00:18:29.153Z,24.23
2018-04-24T00:20:55.012Z,25.03
2018-04-24T00:23:20.897Z,21.17
2018-04-24T00:25:46.769Z,22.93
2018-04-24T00:28:12.582Z,24.30
2018-04-24T00:30:38.457Z,24.10
2018-04-24T00:33:04.296Z,25.47
2018-04-24T00:35:30.194Z,28.40
2018-04-24T00:37:56.043Z,28.93
2018-04-24T00:40:21.891Z,26.57
2018-04-24T00:42:47.765Z,27.20
2018-04-24T00:45:13.638Z,35.50
2018-04-24T00:47:39.508Z,22.17
2018-04-24T00:50:05.366Z,20.63
2018-04-24T00:52:31.241Z,24.77
2018-04-24T00:54:57.090Z,31.07
2018-04-24T00:57:22.953Z,30.83
2018-04-24T00:59:48.788Z,27.43
2018-04-24T01:02:14.666Z,28.53
2018-04-24T01:04:40.513Z,27.20
2018-04-24T01:07:06.370Z,32.00
2018-04-24T01:09:32.240Z,25.93
2018-04-24T01:11:58.143Z,30.07
2018-04-24T01:14:24.023Z,31.30
2018-04-24T01:16:49.934Z,28.43
2018-04-24T01:19:15.848Z,35.00
2018-04-24T01:21:41.717Z,29.47
2018-04-24T01:24:07.611Z,38.23
2018-04-24T01:26:40.507Z,33.47
2018-04-24T01:29:06.377Z,31.80
2018-04-24T01:31:32.237Z,32.10
2018-04-24T01:33:58.115Z,32.87
2018-04-24T01:36:23.936Z,32.73
2018-04-24T01:38:49.800Z,34.93
2018-04-24T01:41:15.654Z,32.13
2018-04-24T01:43:41.473Z,32.17
2018-04-24T01:46:07.357Z,30.10
2018-04-24T01:48:33.197Z,31.80
2018-04-24T01:50:59.074Z,29.63
2018-04-24T01:53:24.916Z,34.77
2018-04-24T01:55:50.813Z,33.97
2018-04-24T01:58:16.656Z,38.70
2018-04-24T02:00:42.524Z,36.03
2018-04-24T02:03:08.368Z,32.37
2018-04-24T02:05:34.194Z,34.87
2018-04-24T02:08:00.063Z,35.53
2018-04-24T02:10:25.953Z,37.17
2018-04-24T02:12:51.813Z,41.13
2018-04-24T02:15:17.616Z,35.73
2018-04-24T02:17:43.537Z,32.20
2018-04-24T02:20:09.413Z,40.40
2018-04-24T02:25:19.431Z,27.70
2018-04-24T02:27:45.236Z,34.90
2018-04-24T02:30:11.108Z,32.63
2018-04-24T02:32:36.992Z,35.40
2018-04-24T02:35:02.854Z,30.87
2018-04-24T02:37:28.723Z,33.30
2018-04-24T02:39:54.585Z,31.13
2018-04-24T02:42:20.418Z,40.20
2018-04-24T02:44:46.312Z,41.57
2018-04-24T02:47:12.167Z,31.83
2018-04-24T02:49:37.989Z,37.60
2018-04-24T02:52:03.870Z,33.40
2018-04-24T02:54:29.715Z,37.00
2018-04-24T02:56:55.547Z,35.23
2018-04-24T02:59:21.455Z,37.10
2018-04-24T03:01:47.331Z,34.50
2018-04-24T03:04:13.160Z,39.57
2018-04-24T03:06:39.028Z,41.00
2018-04-24T03:09:04.876Z,39.47
2018-04-24T03:11:30.740Z,34.40
2018-04-24T03:13:56.607Z,37.40
2018-04-24T03:16:22.517Z,36.17
2018-04-24T03:18:48.411Z,37.30
2018-04-24T03:21:14.235Z,38.60
2018-04-24T03:23:40.084Z,35.10
2018-04-24T03:26:05.948Z,33.70
2018-04-24T03:28:31.817Z,31.23
2018-04-24T03:30:57.676Z,38.03
2018-04-24T03:33:23.515Z,34.13
2018-04-24T03:35:49.353Z,34.40
2018-04-24T03:38:15.202Z,35.27
2018-04-24T03:40:41.083Z,31.03
2018-04-24T03:43:06.908Z,35.90
2018-04-24T03:45:32.758Z,36.43
2018-04-24T03:47:58.635Z,35.37
2018-04-24T03:50:24.456Z,43.27
2018-04-24T03:52:50.352Z,32.67
2018-04-24T03:55:16.191Z,36.80
2018-04-24T03:57:42.073Z,40.03
2018-04-24T04:00:07.926Z,38.10
2018-04-24T04:02:33.801Z,36.87
2018-04-24T04:04:59.645Z,33.27
2018-04-24T04:07:25.573Z,41.63
2018-04-24T04:09:51.433Z,38.43
2018-04-24T04:12:17.280Z,41.67
2018-04-24T04:14:43.143Z,39.77
2018-04-24T04:17:15.170Z,35.93
2018-04-24T04:19:47.265Z,37.00
2018-04-24T04:22:19.249Z,35.43
2018-04-24T04:24:48.158Z,35.73
2018-04-24T04:27:13.996Z,33.53
2018-04-24T04:29:39.839Z,47.13
2018-04-24T04:32:05.723Z,35.17
2018-04-24T04:34:31.575Z,35.90
2018-04-24T04:36:57.449Z,38.40
2018-04-24T04:39:23.295Z,35.60
2018-04-24T04:41:49.156Z,35.43
2018-04-24T04:44:15.017Z,35.83
2018-04-24T04:46:40.895Z,39.07
2018-04-24T04:49:06.741Z,37.03
2018-04-24T04:51:32.602Z,41.83
2018-04-24T04:53:58.448Z,32.90
2018-04-24T04:56:24.333Z,38.03
2018-04-24T04:58:50.237Z,43.27
2018-04-24T05:01:16.074Z,37.53
2018-04-24T05:03:41.942Z,34.10
2018-04-24T05:06:07.788Z,32.47
2018-04-24T05:08:33.685Z,31.70
2018-04-24T05:10:59.570Z,33.40
2018-04-24T05:13:25.429Z,26.93
2018-04-24T05:15:51.339Z,33.43
2018-04-24T05:18:17.181Z,28.60
2018-04-24T05:20:43.112Z,26.97
2018-04-24T05:23:08.977Z,27.43
2018-04-24T05:25:34.864Z,31.53
2018-04-24T05:28:00.760Z,26.80
2018-04-24T05:30:26.603Z,23.63
2018-04-24T05:32:52.772Z,31.13
2018-04-24T05:35:18.614Z,29.03
2018-04-24T05:37:45.338Z,27.73
2018-04-24T05:40:11.202Z,25.30
2018-04-24T05:42:37.021Z,24.67
2018-04-24T05:47:59.865Z,27.57
2018-04-24T05:50:25.700Z,24.27
2018-04-24T05:52:51.544Z,24.13
2018-04-24T05:55:17.384Z,29.97
2018-04-24T05:57:43.280Z,25.23
2018-04-24T06:00:09.150Z,25.00
2018-04-24T06:02:35.022Z,28.17
2018-04-24T06:05:00.860Z,22.97
2018-04-24T06:07:26.783Z,22.77
2018-04-24T06:09:52.640Z,23.50
2018-04-24T06:12:18.508Z,28.43
2018-04-24T06:14:44.368Z,29.03
2018-04-24T06:17:10.223Z,25.57
2018-04-24T06:19:36.076Z,22.40
2018-04-24T06:22:01.922Z,19.17
2018-04-24T06:24:27.831Z,21.90
2018-04-24T06:26:53.705Z,19.60
2018-04-24T06:29:19.531Z,21.63
2018-04-24T06:31:45.420Z,21.80
2018-04-24T06:34:11.519Z,20.23
2018-04-24T06:36:37.353Z,22.60
2018-04-24T06:39:03.251Z,19.53
2018-04-24T06:41:29.120Z,20.33
2018-04-24T06:43:55.025Z,15.87
2018-04-24T06:46:20.897Z,17.10
2018-04-24T06:48:46.761Z,20.00
2018-04-24T06:51:12.606Z,20.13
2018-04-24T06:53:38.420Z,15.03
2018-04-24T06:56:11.324Z,16.40
2018-04-24T06:58:37.221Z,14.83
2018-04-24T07:01:03.097Z,16.60
2018-04-24T07:03:28.976Z,15.23
2018-04-24T07:05:54.795Z,16.90
2018-04-24T07:08:20.679Z,20.23
2018-04-24T07:10:46.516Z,17.90
2018-04-24T07:13:12.418Z,16.57
2018-04-24T07:15:38.241Z,15.57
2018-04-24T07:18:04.126Z,16.40
2018-04-24T07:20:29.961Z,17.37
2018-04-24T07:22:55.844Z,15.67
2018-04-24T07:25:21.733Z,13.63
2018-04-24T07:27:47.591Z,19.43
2018-04-24T07:30:13.453Z,13.00
2018-04-24T07:32:39.267Z,13.47
2018-04-24T07:35:05.168Z,14.37
2018-04-24T07:37:31.021Z,19.97
2018-04-24T07:39:56.901Z,14.67
2018-04-24T07:42:22.800Z,12.73
2018-04-24T07:44:48.656Z,13.37
2018-04-24T07:47:14.516Z,15.37
2018-04-24T07:49:40.358Z,16.83
2018-04-24T07:52:06.240Z,15.07
2018-04-24T07:54:32.072Z,13.93
2018-04-24T07:56:57.969Z,12.63
2018-04-24T07:59:23.806Z,14.13
2018-04-24T08:01:49.706Z,15.13
2018-04-24T08:04:15.516Z,15.20
2018-04-24T08:06:41.381Z,14.67
2018-04-24T08:09:07.275Z,14.63
2018-04-24T08:11:33.149Z,15.77
2018-04-24T08:13:58.993Z,12.13
2018-04-24T08:16:24.818Z,10.37
2018-04-24T08:18:50.713Z,12.57
2018-04-24T08:21:16.646Z,12.13
2018-04-24T08:23:42.543Z,10.13
2018-04-24T08:26:08.518Z,15.17
2018-04-24T08:28:34.354Z,16.13
2018-04-24T08:31:00.236Z,11.83
2018-04-24T08:33:26.105Z,11.37
2018-04-24T08:35:51.928Z,12.67
2018-04-24T08:38:17.802Z,12.77
2018-04-24T08:40:43.666Z,14.63
2018-04-24T08:43:09.528Z,10.15
2018-04-24T08:45:35.346Z,11.32
2018-04-24T08:48:01.336Z,11.30
2018-04-24T08:50:27.081Z,11.07
2018-04-24T08:52:52.936Z,9.85
2018-04-24T08:55:18.812Z,8.00
2018-04-24T08:57:44.633Z,9.48
2018-04-24T09:00:10.491Z,15.60
2018-04-24T09:02:36.337Z,11.68
2018-04-24T09:05:02.294Z,7.62
2018-04-24T09:07:28.159Z,10.05
2018-04-24T09:09:53.969Z,12.40
2018-04-24T09:12:19.831Z,11.90
2018-04-24T09:14:45.696Z,12.52
2018-04-24T09:17:11.547Z,9.40
2018-04-24T09:19:37.407Z,8.98
2018-04-24T09:22:03.256Z,13.75
2018-04-24T09:24:29.148Z,14.23
2018-04-24T09:26:55.079Z,8.15
2018-04-24T09:29:20.894Z,11.88
2018-04-24T09:31:46.716Z,13.93
2018-04-24T09:34:12.593Z,11.23
2018-04-24T09:36:38.453Z,9.30
2018-04-24T09:39:06.261Z,10.23
2018-04-24T09:41:32.118Z,9.05
2018-04-24T09:44:04.862Z,12.13
2018-04-24T09:46:30.728Z,11.48
2018-04-24T09:48:56.594Z,8.93
2018-04-24T09:51:22.575Z,12.45
2018-04-24T09:53:48.405Z,8.05
2018-04-24T09:56:14.272Z,11.32
2018-04-24T09:58:40.179Z,13.32
2018-04-24T10:01:06.034Z,8.35
2018-04-24T10:03:31.919Z,11.77
2018-04-24T10:05:57.808Z,11.65
2018-04-24T10:08:23.683Z,8.68
2018-04-24T10:10:49.562Z,10.52
2018-04-24T10:13:15.428Z,9.95
2018-04-24T10:15:41.310Z,8.10
2018-04-24T10:18:07.152Z,13.20
2018-04-24T10:20:33.052Z,11.52
2018-04-24T10:22:58.916Z,10.55
2018-04-24T10:25:24.752Z,8.55
2018-04-24T10:27:50.634Z,11.63
2018-04-24T10:30:16.505Z,7.20
2018-04-24T10:32:42.349Z,7.68
2018-04-24T10:35:08.270Z,12.00
2018-04-24T10:37:34.155Z,10.80
2018-04-24T10:39:59.979Z,8.07
2018-04-24T10:42:25.873Z,7.65
2018-04-24T10:44:51.721Z,8.23
2018-04-24T10:47:17.599Z,9.52
2018-04-24T10:49:43.456Z,7.12
2018-04-24T10:52:09.286Z,8.55
2018-04-24T10:54:35.178Z,9.25
2018-04-24T10:57:01.053Z,8.27
2018-04-24T10:59:26.941Z,10.80
2018-04-24T11:01:52.790Z,8.55
2018-04-24T11:04:18.656Z,11.00
2018-04-24T11:06:44.565Z,10.80
2018-04-24T11:09:10.434Z,9.77
2018-04-24T11:11:36.288Z,7.25
2018-04-24T11:14:02.190Z,10.18
2018-04-24T11:16:28.101Z,11.00
2018-04-24T11:18:53.943Z,8.60
2018-04-24T11:21:19.897Z,9.70
2018-04-24T11:23:45.709Z,8.07
2018-04-24T11:26:11.624Z,9.48
2018-04-24T11:28:37.495Z,7.75
2018-04-24T11:31:03.376Z,14.55
2018-04-24T11:33:29.253Z,8.90
2018-04-24T11:35:55.118Z,10.38
2018-04-24T11:38:20.984Z,7.85
2018-04-24T11:40:46.846Z,7.15
2018-04-24T11:43:12.708Z,12.45
2018-04-24T11:45:38.592Z,8.88
2018-04-24T11:48:04.472Z,10.30
2018-04-24T11:50:30.408Z,7.75
2018-04-24T11:52:56.276Z,9.43
2018-04-24T11:55:22.139Z,7.20
2018-04-24T11:57:47.999Z,6.80
2018-04-24T12:00:13.873Z,10.75
2018-04-24T12:02:39.771Z,5.72
2018-04-24T12:05:05.667Z,11.52
2018-04-24T12:07:31.536Z,6.78
2018-04-24T12:09:57.479Z,8.55
2018-04-24T12:12:23.365Z,10.40
2018-04-24T12:14:49.196Z,5.95
2018-04-24T12:17:15.069Z,7.43
2018-04-24T12:19:41.005Z,9.40
2018-04-24T12:22:06.861Z,8.23
2018-04-24T12:24:32.767Z,7.37
2018-04-24T12:26:58.574Z,9.07
2018-04-24T12:29:24.419Z,9.13
2018-04-24T12:31:50.316Z,7.95
2018-04-24T12:34:16.124Z,8.25
2018-04-24T12:36:41.993Z,12.27
2018-04-24T12:39:07.861Z,10.48
2018-04-24T12:41:33.731Z,8.07
2018-04-24T12:43:59.576Z,8.05
2018-04-24T12:46:25.429Z,7.65
2018-04-24T12:48:51.486Z,12.20
2018-04-24T12:51:17.341Z,10.48
2018-04-24T12:53:43.188Z,11.18
2018-04-24T12:56:09.047Z,9.65
2018-04-24T12:58:34.897Z,8.30
2018-04-24T13:01:00.773Z,10.02
2018-04-24T13:03:26.630Z,11.35
2018-04-24T13:05:52.479Z,12.30
2018-04-24T13:08:18.435Z,7.12
2018-04-24T13:10:44.294Z,8.30
2018-04-24T13:13:10.174Z,7.85
2018-04-24T13:15:36.014Z,12.37
2018-04-24T13:18:01.891Z,16.58
2018-04-24T13:20:27.796Z,9.15
2018-04-24T13:22:53.693Z,11.93
2018-04-24T13:25:19.600Z,7.65
2018-04-24T13:27:45.484Z,7.87
2018-04-24T13:30:11.359Z,7.78
2018-04-24T13:32:37.195Z,7.07
2018-04-24T13:35:03.070Z,8.05
2018-04-24T13:37:28.907Z,8.95
2018-04-24T13:39:54.763Z,9.90
2018-04-24T13:42:20.634Z,15.07
2018-04-24T13:44:46.472Z,10.93
2018-04-24T13:47:12.316Z,7.60
2018-04-24T13:49:38.215Z,11.32
2018-04-24T13:52:04.048Z,7.82
2018-04-24T13:54:29.908Z,8.90
2018-04-24T13:56:55.737Z,14.20
2018-04-24T13:59:21.641Z,8.10
2018-04-24T14:01:47.472Z,9.63
2018-04-24T14:04:13.331Z,8.35
2018-04-24T14:06:39.181Z,5.90
2018-04-24T14:09:05.113Z,6.18
2018-04-24T14:11:30.949Z,9.35
2018-04-24T14:13:56.824Z,10.48
2018-04-24T14:16:22.679Z,7.78
2018-04-24T14:18:48.577Z,7.68
2018-04-24T14:21:14.442Z,11.00
2018-04-24T14:23:40.323Z,8.90
2018-04-24T14:26:06.185Z,10.82
2018-04-24T14:28:32.049Z,12.32
2018-04-24T14:30:57.921Z,12.75
2018-04-24T14:33:23.805Z,6.53
2018-04-24T14:35:49.689Z,5.85
2018-04-24T14:38:15.542Z,10.10
2018-04-24T14:40:41.449Z,10.38
2018-04-24T14:43:07.318Z,9.25
2018-04-24T14:45:33.195Z,9.55
2018-04-24T14:47:59.094Z,8.77
2018-04-24T14:50:24.934Z,9.85
2018-04-24T14:52:50.822Z,12.93
2018-04-24T14:55:16.656Z,9.75
2018-04-24T14:57:42.559Z,9.27
2018-04-24T15:00:08.404Z,13.82
2018-04-24T15:02:34.267Z,8.10
2018-04-24T15:05:00.197Z,10.40
2018-04-24T15:07:26.064Z,12.02
2018-04-24T15:09:51.961Z,8.98
2018-04-24T15:12:17.859Z,7.68
2018-04-24T15:14:43.709Z,6.97
2018-04-24T15:17:09.657Z,10.77
2018-04-24T15:19:35.485Z,10.48
2018-04-24T15:22:01.333Z,7.53
2018-04-24T15:24:27.192Z,11.15
2018-04-24T15:26:53.003Z,8.45
2018-04-24T15:29:18.894Z,8.98
2018-04-24T15:31:44.756Z,6.87
2018-04-24T15:34:10.773Z,10.13
2018-04-24T15:36:36.633Z,7.40
2018-04-24T15:39:02.771Z,5.20
2018-04-24T15:41:28.644Z,6.53
2018-04-24T15:43:54.504Z,10.75
2018-04-24T15:46:20.377Z,7.87
2018-04-24T15:48:46.225Z,7.55
2018-04-24T15:51:12.054Z,11.45
2018-04-24T15:53:37.946Z,9.40
2018-04-24T15:56:03.820Z,6.85
2018-04-24T15:58:30.275Z,9.27
2018-04-24T16:00:56.086Z,9.48
2018-04-24T16:03:22.116Z,11.55
2018-04-24T16:05:47.981Z,9.98
2018-04-24T16:08:14.126Z,11.50
2018-04-24T16:10:40.000Z,10.57
2018-04-24T16:13:05.828Z,12.70
2018-04-24T16:15:32.093Z,11.32
2018-04-24T16:17:58.018Z,8.07
2018-04-24T16:20:23.882Z,10.02
2018-04-24T16:22:49.745Z,9.27
2018-04-24T16:25:15.605Z,10.63
2018-04-24T16:27:41.463Z,9.15
2018-04-24T16:30:07.374Z,8.15
2018-04-24T16:32:33.191Z,4.95
2018-04-24T16:34:59.060Z,9.70
2018-04-24T16:37:24.954Z,9.25
2018-04-24T16:39:50.800Z,13.10
2018-04-24T16:42:16.682Z,7.95
2018-04-24T16:44:42.548Z,11.70
2018-04-24T16:47:08.424Z,6.20
2018-04-24T16:49:34.309Z,8.68
2018-04-24T16:52:00.137Z,21.92
2018-04-24T16:54:26.448Z,14.98
2018-04-24T16:56:52.412Z,12.55
2018-04-24T16:59:18.817Z,8.65
2018-04-24T17:01:44.744Z,11.77
2018-04-24T17:04:10.626Z,11.15
2018-04-24T17:06:36.882Z,9.82
2018-04-24T17:09:02.939Z,10.25
2018-04-24T17:11:28.879Z,9.05
2018-04-24T17:13:55.199Z,9.63
2018-04-24T17:16:21.106Z,9.00
2018-04-24T17:18:47.132Z,9.93
2018-04-24T17:21:13.016Z,14.13
2018-04-24T17:23:38.884Z,8.73
2018-04-24T17:26:05.428Z,11.75
2018-04-24T17:28:31.328Z,10.55
2018-04-24T17:30:57.302Z,16.45
2018-04-24T17:33:23.075Z,9.13
2018-04-24T17:35:48.934Z,6.85
2018-04-24T17:38:15.183Z,16.50
2018-04-24T17:40:41.008Z,14.25
2018-04-24T17:43:07.583Z,10.57
2018-04-24T17:45:33.756Z,12.82
2018-04-24T17:47:59.702Z,12.30
2018-04-24T17:50:25.982Z,14.83
2018-04-24T17:52:52.622Z,13.90
2018-04-24T17:55:18.501Z,14.38
2018-04-24T17:57:44.638Z,12.93
2018-04-24T18:00:10.492Z,16.00
2018-04-24T18:02:36.346Z,28.73
2018-04-24T18:05:02.491Z,29.47
2018-04-24T18:07:29.785Z,37.20
2018-04-24T18:09:55.859Z,13.93
2018-04-24T18:12:21.776Z,15.40
2018-04-24T18:14:47.893Z,8.20
2018-04-24T18:17:13.934Z,9.10
2018-04-24T18:19:39.790Z,11.80
2018-04-24T18:22:05.643Z,10.80
2018-04-24T18:24:31.505Z,11.63
2018-04-24T18:26:57.387Z,13.47
2018-04-24T18:29:23.214Z,11.80
2018-04-24T18:31:50.326Z,10.50
2018-04-24T18:34:16.247Z,13.07
2018-04-24T18:36:42.076Z,9.13
2018-04-24T18:39:07.891Z,12.57
2018-04-24T18:41:33.765Z,12.20
2018-04-24T18:43:59.619Z,12.43
2018-04-24T18:46:25.533Z,10.20
2018-04-24T18:48:51.373Z,9.93
2018-04-24T18:51:17.234Z,14.73
2018-04-24T18:53:43.101Z,14.43
2018-04-24T18:56:08.977Z,12.27
2018-04-24T18:58:34.854Z,17.27
2018-04-24T19:01:00.715Z,12.37
2018-04-24T19:03:26.987Z,8.40
2018-04-24T19:05:52.878Z,12.77
2018-04-24T19:08:18.735Z,13.27
2018-04-24T19:10:45.365Z,10.67
2018-04-24T19:13:11.232Z,13.17
2018-04-24T19:15:37.412Z,10.37
2018-04-24T19:18:03.303Z,12.87
2018-04-24T19:20:29.371Z,9.20
2018-04-24T19:22:55.284Z,10.63
2018-04-24T19:25:27.297Z,9.10
2018-04-24T19:27:53.160Z,8.77
2018-04-24T19:30:19.800Z,7.97
2018-04-24T19:32:45.605Z,11.90
2018-04-24T19:35:12.109Z,10.50
2018-04-24T19:37:37.992Z,10.83
2018-04-24T19:40:10.037Z,10.13
2018-04-24T19:42:35.930Z,11.20
2018-04-24T19:45:02.307Z,17.13
2018-04-24T19:47:28.185Z,9.57
2018-04-24T19:50:00.151Z,9.43
2018-04-24T19:52:26.012Z,9.07
2018-04-24T19:54:58.139Z,14.77
2018-04-24T19:57:24.058Z,12.30
2018-04-24T19:59:49.933Z,10.67
2018-04-24T20:02:17.254Z,11.97
2018-04-24T20:04:50.171Z,13.43
2018-04-24T20:07:16.031Z,15.90
2018-04-24T20:09:41.883Z,10.77
2018-04-24T20:12:07.931Z,11.17
2018-04-24T20:14:33.788Z,10.63
2018-04-24T20:16:59.633Z,10.03
2018-04-24T20:19:25.541Z,9.17
2018-04-24T20:21:51.446Z,10.97
2018-04-24T20:24:17.712Z,12.93
2018-04-24T20:26:43.605Z,13.03
2018-04-24T20:29:09.469Z,10.70
2018-04-24T20:31:35.299Z,9.03
2018-04-24T20:34:01.197Z,15.53
2018-04-24T20:36:27.069Z,10.53
2018-04-24T20:38:52.965Z,11.43
2018-04-24T20:41:18.824Z,10.57
2018-04-24T20:43:44.684Z,12.90
2018-04-24T20:46:10.595Z,14.33
2018-04-24T20:48:36.462Z,11.37
2018-04-24T20:51:02.738Z,11.47
2018-04-24T20:53:28.686Z,11.77
2018-04-24T20:55:54.542Z,14.27
2018-04-24T20:58:20.379Z,12.13
2018-04-24T21:00:46.368Z,10.53
2018-04-24T21:03:12.190Z,11.87
2018-04-24T21:05:38.113Z,10.20
2018-04-24T21:08:04.073Z,13.53
2018-04-24T21:10:29.916Z,9.13
2018-04-24T21:12:55.799Z,10.03
2018-04-24T21:15:21.892Z,11.70
2018-04-24T21:17:47.813Z,12.17
2018-04-24T21:20:13.799Z,13.47
2018-04-24T21:22:39.694Z,12.23
2018-04-24T21:25:05.561Z,13.57
2018-04-24T21:27:31.444Z,10.73
2018-04-24T21:29:57.337Z,14.07
2018-04-24T21:32:23.282Z,12.97
2018-04-24T21:34:49.120Z,16.10
2018-04-24T21:37:14.980Z,10.57
2018-04-24T21:39:40.809Z,16.60
2018-04-24T21:42:06.693Z,12.47
2018-04-24T21:44:32.538Z,15.43
2018-04-24T21:46:58.433Z,12.93
2018-04-24T21:49:24.355Z,11.63
2018-04-24T21:51:50.259Z,12.27
2018-04-24T21:54:16.106Z,9.77
2018-04-24T21:56:42.041Z,12.47
2018-04-24T21:59:07.927Z,11.57
2018-04-24T22:01:33.815Z,10.77
2018-04-24T22:03:59.660Z,12.47
2018-04-24T22:06:25.509Z,12.90
2018-04-24T22:08:51.453Z,12.77
2018-04-24T22:11:17.285Z,13.43
2018-04-24T22:13:43.105Z,12.83
2018-04-24T22:16:08.983Z,12.53
2018-04-24T22:18:34.866Z,15.00
2018-04-24T22:21:00.681Z,12.43
2018-04-24T22:23:26.550Z,19.40
2018-04-24T22:25:52.445Z,13.53
2018-04-24T22:28:18.275Z,14.17
2018-04-24T22:30:44.134Z,15.67
2018-04-24T22:33:10.121Z,14.13
2018-04-24T22:35:35.997Z,16.73
2018-04-24T22:38:01.847Z,16.40
2018-04-24T22:40:27.718Z,15.10
2018-04-24T22:42:53.584Z,15.47
2018-04-24T22:45:19.487Z,15.67
2018-04-24T22:47:45.370Z,13.47
2018-04-24T22:50:11.216Z,12.60
2018-04-24T22:52:37.110Z,12.90
2018-04-24T22:55:02.947Z,11.80
2018-04-24T22:57:28.893Z,13.33
2018-04-24T22:59:54.773Z,11.83
2018-04-24T23:02:20.629Z,13.37
2018-04-24T23:04:46.454Z,13.90
2018-04-24T23:07:12.304Z,12.63
2018-04-24T23:09:38.201Z,12.53
2018-04-24T23:12:10.245Z,13.63
2018-04-24T23:14:42.138Z,12.03
2018-04-24T23:17:14.214Z,14.27
2018-04-24T23:19:46.088Z,10.93
2018-04-24T23:22:17.962Z,13.13
2018-04-24T23:24:43.834Z,12.20
2018-04-24T23:27:09.725Z,16.00
2018-04-24T23:29:35.607Z,12.00
2018-04-24T23:32:01.456Z,15.50
2018-04-24T23:34:27.327Z,13.57
2018-04-24T23:36:53.183Z,14.57
2018-04-24T23:39:19.066Z,12.73
2018-04-24T23:41:44.959Z,15.53
2018-04-24T23:44:10.847Z,12.50
2018-04-24T23:46:36.691Z,11.70
2018-04-24T23:49:02.629Z,17.17
2018-04-24T23:51:28.513Z,13.27
2018-04-24T23:53:54.372Z,14.80
2018-04-24T23:56:20.240Z,13.27
2018-04-24T23:58:46.109Z,13.23
